Terminal Aerodrome Forecast
Issued by NWS Cleveland, OH

Home | Current Version | Previous Version | Text Only | Print | Product List | Glossary On
Versions: 1 2 3 4 5 6 7 8 9 10 11 12 13 14 15 16 17
000
FTUS41 KCLE 050200 AAA
TAFCAK
TAF AMD
KCAK 050207Z 0502/0524 25008KT 6SM BR SCT045 BKN060
      TEMPO 0503/0507 3SM BR
     FM051200 VRB04KT 5SM BR SCT045 BKN100
     FM051500 VRB04KT 3SM -SHRA BR OVC020=

USA.gov is the U.S. government's official web portal to all federal, state and local government web resources and services.